createdAt,value
2022-08-28T00:01:45.323Z,8.00
2022-08-28T00:04:12.653Z,7.97
2022-08-28T00:06:39.744Z,7.88
2022-08-28T00:09:08.014Z,8.15
2022-08-28T00:11:39.405Z,7.22
2022-08-28T00:14:09.233Z,7.57
2022-08-28T00:16:36.527Z,6.78
2022-08-28T00:19:04.603Z,6.68
2022-08-28T00:21:33.218Z,6.47
2022-08-28T00:24:00.653Z,6.88
2022-08-28T00:26:46.565Z,6.93
2022-08-28T00:29:14.195Z,7.22
2022-08-28T00:31:41.377Z,6.78
2022-08-28T00:34:09.076Z,7.20
2022-08-28T00:36:37.772Z,8.13
2022-08-28T00:39:06.483Z,6.25
2022-08-28T00:41:35.015Z,6.97
2022-08-28T00:44:23.055Z,6.85
2022-08-28T00:46:53.447Z,7.50
2022-08-28T00:49:28.027Z,6.68
2022-08-28T00:52:11.306Z,7.13
2022-08-28T00:54:58.899Z,7.28
2022-08-28T00:57:31.939Z,6.28
2022-08-28T00:59:59.367Z,7.60
2022-08-28T01:02:27.449Z,7.28
2022-08-28T01:04:55.284Z,7.53
2022-08-28T01:07:23.241Z,6.90
2022-08-28T01:09:53.488Z,6.57
2022-08-28T01:12:27.744Z,6.32
2022-08-28T01:14:58.711Z,5.43
2022-08-28T01:17:31.232Z,5.90
2022-08-28T01:20:04.382Z,5.80
2022-08-28T01:22:39.229Z,5.80
2022-08-28T01:25:10.487Z,6.35
2022-08-28T01:27:41.773Z,5.80
2022-08-28T01:30:11.388Z,5.93
2022-08-28T01:32:41.569Z,5.85
2022-08-28T01:35:11.462Z,6.10
2022-08-28T01:37:38.617Z,5.82
2022-08-28T01:40:09.314Z,6.28
2022-08-28T01:42:39.239Z,5.45
2022-08-28T01:45:10.996Z,7.00
2022-08-28T01:47:39.037Z,5.97
2022-08-28T01:50:08.460Z,6.85
2022-08-28T01:52:36.436Z,6.00
2022-08-28T01:55:05.780Z,6.97
2022-08-28T01:57:33.196Z,6.78
2022-08-28T02:00:00.482Z,8.52
2022-08-28T02:02:27.742Z,6.95
2022-08-28T02:04:54.839Z,6.82
2022-08-28T02:07:22.248Z,7.68
2022-08-28T02:09:49.389Z,7.07
2022-08-28T02:12:17.700Z,6.63
2022-08-28T02:14:44.853Z,8.40
2022-08-28T02:17:12.108Z,7.80
2022-08-28T02:19:39.264Z,8.32
2022-08-28T02:22:08.259Z,9.18
2022-08-28T02:24:36.014Z,8.38
2022-08-28T02:27:04.617Z,8.95
2022-08-28T02:29:31.931Z,10.07
2022-08-28T02:31:59.094Z,8.85
2022-08-28T02:34:26.239Z,9.00
2022-08-28T02:36:53.350Z,8.90
2022-08-28T02:39:20.457Z,8.55
2022-08-28T02:41:47.616Z,10.07
2022-08-28T02:44:14.749Z,10.18
2022-08-28T02:46:42.008Z,10.20
2022-08-28T02:49:09.133Z,10.15
2022-08-28T02:51:36.312Z,11.65
2022-08-28T02:54:03.509Z,9.90
2022-08-28T02:56:31.038Z,10.90
2022-08-28T02:58:58.373Z,11.20
2022-08-28T03:01:25.596Z,11.63
2022-08-28T03:03:53.085Z,11.80
2022-08-28T03:06:20.803Z,10.30
2022-08-28T03:08:47.965Z,10.88
2022-08-28T03:11:15.069Z,9.85
2022-08-28T03:13:42.444Z,9.85
2022-08-28T03:16:09.749Z,9.13
2022-08-28T03:18:36.965Z,9.90
2022-08-28T03:21:04.234Z,9.25
2022-08-28T03:23:31.934Z,8.38
2022-08-28T03:26:10.612Z,7.95
2022-08-28T03:28:42.095Z,7.85
2022-08-28T03:31:11.720Z,8.35
2022-08-28T03:33:42.681Z,7.80
2022-08-28T03:36:14.889Z,7.22
2022-08-28T03:38:42.299Z,7.03
2022-08-28T03:41:14.555Z,7.20
2022-08-28T03:43:42.471Z,7.03
2022-08-28T03:46:13.780Z,7.47
2022-08-28T03:48:44.710Z,6.95
2022-08-28T03:51:15.083Z,7.32
2022-08-28T03:53:43.181Z,7.80
2022-08-28T03:56:13.904Z,6.80
2022-08-28T03:58:41.590Z,6.68
2022-08-28T04:01:09.358Z,7.57
2022-08-28T04:03:36.737Z,6.50
2022-08-28T04:06:04.217Z,5.93
2022-08-28T04:08:31.579Z,5.95
2022-08-28T04:11:00.747Z,6.13
2022-08-28T04:13:28.205Z,6.75
2022-08-28T04:15:59.767Z,6.57
2022-08-28T04:18:27.979Z,5.88
2022-08-28T04:21:02.346Z,6.32
2022-08-28T04:23:30.173Z,6.47
2022-08-28T04:25:57.289Z,5.97
2022-08-28T04:28:25.890Z,6.70
2022-08-28T04:30:54.969Z,5.38
2022-08-28T04:33:23.854Z,5.63
2022-08-28T04:35:51.054Z,5.72
2022-08-28T04:38:18.400Z,5.30
2022-08-28T04:40:45.648Z,6.35
2022-08-28T04:43:12.812Z,5.72
2022-08-28T04:45:41.383Z,5.88
2022-08-28T04:48:10.961Z,5.65
2022-08-28T04:50:45.876Z,5.68
2022-08-28T04:53:14.432Z,5.18
2022-08-28T04:55:54.351Z,5.72
2022-08-28T04:58:23.808Z,6.18
2022-08-28T05:00:52.812Z,5.40
2022-08-28T05:03:20.408Z,4.70
2022-08-28T05:05:53.611Z,4.75
2022-08-28T05:08:24.146Z,5.32
2022-08-28T05:10:51.304Z,4.93
2022-08-28T05:13:19.161Z,4.88
2022-08-28T05:15:49.421Z,6.00
2022-08-28T05:18:18.515Z,5.40
2022-08-28T05:20:47.479Z,4.85
2022-08-28T05:23:15.762Z,5.03
2022-08-28T05:25:45.249Z,5.40
2022-08-28T05:28:19.646Z,4.10
2022-08-28T05:30:46.993Z,4.50
2022-08-28T05:33:14.954Z,4.90
2022-08-28T05:35:44.098Z,4.55
2022-08-28T05:38:13.170Z,5.00
2022-08-28T05:40:45.686Z,4.28
2022-08-28T05:43:14.569Z,4.32
2022-08-28T05:45:41.775Z,4.35
2022-08-28T05:48:09.085Z,4.28
2022-08-28T05:50:39.494Z,4.65
2022-08-28T05:55:40.383Z,4.03
2022-08-28T05:58:26.501Z,3.92
2022-08-28T06:00:53.785Z,4.32
2022-08-28T06:03:20.915Z,4.32
2022-08-28T06:05:54.981Z,4.57
2022-08-28T06:08:23.203Z,5.15
2022-08-28T06:10:50.836Z,5.18
2022-08-28T06:13:18.146Z,4.82
2022-08-28T06:15:47.043Z,5.97
2022-08-28T06:18:15.160Z,5.22
2022-08-28T06:20:44.843Z,5.95
2022-08-28T06:23:15.286Z,5.35
2022-08-28T06:25:51.621Z,6.07
2022-08-28T06:28:21.362Z,4.65
2022-08-28T06:31:18.059Z,4.60
2022-08-28T06:33:37.045Z,5.03
2022-08-28T06:36:05.335Z,5.93
2022-08-28T06:38:32.512Z,5.28
2022-08-28T06:41:00.091Z,5.35
2022-08-28T06:43:29.004Z,5.60
2022-08-28T06:45:57.550Z,6.13
2022-08-28T06:48:27.328Z,4.80
2022-08-28T06:50:55.982Z,5.20
2022-08-28T06:53:24.982Z,5.68
2022-08-28T06:55:59.154Z,5.65
2022-08-28T06:58:27.849Z,5.10
2022-08-28T07:01:16.913Z,6.97
2022-08-28T07:03:45.121Z,6.15
2022-08-28T07:06:13.646Z,5.78
2022-08-28T07:08:43.605Z,6.15
2022-08-28T07:11:17.878Z,5.32
2022-08-28T07:13:45.899Z,6.13
2022-08-28T07:16:14.656Z,5.53
2022-08-28T07:18:42.082Z,6.70
2022-08-28T07:21:12.465Z,5.80
2022-08-28T07:23:41.161Z,5.25
2022-08-28T07:26:12.131Z,6.07
2022-08-28T07:28:39.811Z,4.20
2022-08-28T07:31:10.263Z,5.30
2022-08-28T07:33:39.095Z,5.75
2022-08-28T07:36:15.753Z,5.90
2022-08-28T07:38:51.804Z,5.55
2022-08-28T07:41:24.036Z,6.13
2022-08-28T07:44:09.984Z,5.22
2022-08-28T07:46:38.766Z,5.53
2022-08-28T07:49:08.116Z,5.57
2022-08-28T07:51:35.368Z,6.53
2022-08-28T07:54:03.949Z,4.90
2022-08-28T07:56:31.860Z,5.32
2022-08-28T07:59:00.888Z,6.53
2022-08-28T08:01:30.759Z,5.28
2022-08-28T08:04:01.383Z,5.30
2022-08-28T08:06:34.026Z,6.28
2022-08-28T08:09:02.271Z,5.22
2022-08-28T08:11:32.623Z,5.78
2022-08-28T08:14:05.503Z,5.18
2022-08-28T08:16:36.517Z,4.53
2022-08-28T08:19:04.044Z,4.85
2022-08-28T08:21:31.832Z,5.53
2022-08-28T08:23:59.278Z,5.90
2022-08-28T08:26:30.364Z,5.72
2022-08-28T08:28:57.762Z,5.38
2022-08-28T08:31:26.903Z,6.88
2022-08-28T08:33:57.377Z,5.43
2022-08-28T08:36:26.153Z,4.95
2022-08-28T08:38:59.602Z,5.72
2022-08-28T08:41:38.462Z,5.00
2022-08-28T08:44:33.995Z,6.55
2022-08-28T08:47:22.370Z,6.47
2022-08-28T08:49:57.184Z,5.68
2022-08-28T08:52:32.095Z,5.28
2022-08-28T08:55:09.960Z,5.15
2022-08-28T08:57:38.961Z,6.47
2022-08-28T09:00:15.790Z,5.63
2022-08-28T09:03:26.516Z,5.38
2022-08-28T09:06:05.769Z,6.18
2022-08-28T09:08:57.330Z,5.43
2022-08-28T09:12:00.128Z,5.65
2022-08-28T09:14:33.012Z,5.93
2022-08-28T09:17:00.953Z,6.05
2022-08-28T09:19:28.598Z,6.00
2022-08-28T09:21:56.296Z,6.20
2022-08-28T09:24:30.512Z,5.88
2022-08-28T09:27:05.913Z,5.72
2022-08-28T09:32:17.872Z,6.47
2022-08-28T09:35:06.699Z,6.90
2022-08-28T09:37:35.166Z,6.85
2022-08-28T09:40:22.625Z,7.45
2022-08-28T09:43:27.626Z,5.80
2022-08-28T09:46:00.048Z,6.07
2022-08-28T09:48:37.510Z,6.57
2022-08-28T09:51:11.862Z,6.43
2022-08-28T09:53:51.049Z,6.50
2022-08-28T09:56:27.730Z,6.45
2022-08-28T09:58:57.776Z,5.28
2022-08-28T10:01:47.676Z,6.60
2022-08-28T10:04:20.598Z,6.50
2022-08-28T10:06:57.077Z,6.00
2022-08-28T10:09:30.216Z,5.60
2022-08-28T10:12:12.983Z,6.93
2022-08-28T10:15:01.815Z,8.40
2022-08-28T10:17:29.124Z,12.30
2022-08-28T10:20:10.057Z,6.97
2022-08-28T10:22:58.328Z,8.27
2022-08-28T10:25:40.135Z,7.07
2022-08-28T10:28:42.810Z,7.07
2022-08-28T10:31:20.829Z,8.07
2022-08-28T10:34:07.045Z,5.95
2022-08-28T10:36:35.354Z,7.53
2022-08-28T10:39:28.864Z,7.43
2022-08-28T10:41:59.148Z,8.43
2022-08-28T10:44:39.751Z,9.15
2022-08-28T10:47:07.702Z,8.40
2022-08-28T10:49:40.108Z,7.72
2022-08-28T10:52:41.182Z,8.73
2022-08-28T10:55:23.058Z,7.97
2022-08-28T10:57:57.928Z,8.13
2022-08-28T11:00:27.374Z,8.52
2022-08-28T11:02:57.933Z,9.60
2022-08-28T11:05:28.248Z,8.98
2022-08-28T11:08:07.495Z,8.48
2022-08-28T11:10:37.640Z,7.93
2022-08-28T11:13:06.978Z,9.65
2022-08-28T11:15:37.247Z,8.85
2022-08-28T11:18:13.479Z,9.32
2022-08-28T11:21:06.576Z,9.50
2022-08-28T11:23:41.995Z,8.52
2022-08-28T11:28:36.700Z,8.93
2022-08-28T11:31:06.522Z,8.38
2022-08-28T11:33:50.758Z,8.45
2022-08-28T11:36:20.499Z,7.97
2022-08-28T11:38:57.612Z,7.65
2022-08-28T11:41:31.504Z,6.90
2022-08-28T11:44:11.080Z,7.40
2022-08-28T11:46:51.703Z,7.07
2022-08-28T11:49:33.964Z,7.55
2022-08-28T11:52:31.424Z,7.32
2022-08-28T11:55:20.547Z,8.30
2022-08-28T11:58:40.256Z,9.07
2022-08-28T12:01:10.968Z,8.18
2022-08-28T12:04:18.605Z,7.78
2022-08-28T12:06:48.338Z,8.05
2022-08-28T12:09:41.160Z,8.02
2022-08-28T12:12:23.224Z,8.02
2022-08-28T12:14:56.019Z,6.90
2022-08-28T12:17:23.043Z,8.65
2022-08-28T12:19:58.228Z,8.57
2022-08-28T12:22:40.190Z,7.20
2022-08-28T12:25:34.180Z,8.63
2022-08-28T12:28:07.928Z,7.70
2022-08-28T12:31:06.605Z,6.95
2022-08-28T12:34:02.566Z,6.20
2022-08-28T12:36:30.976Z,7.20
2022-08-28T12:38:58.483Z,6.75
2022-08-28T12:41:25.618Z,7.45
2022-08-28T12:43:55.269Z,6.90
2022-08-28T12:46:31.116Z,7.03
2022-08-28T12:49:01.172Z,7.15
2022-08-28T12:51:36.511Z,7.28
2022-08-28T12:56:37.142Z,7.30
2022-08-28T12:59:35.136Z,7.40
2022-08-28T13:02:05.501Z,6.40
2022-08-28T13:04:32.762Z,6.40
2022-08-28T13:07:10.731Z,5.90
2022-08-28T13:09:42.282Z,6.05
2022-08-28T13:12:37.798Z,6.35
2022-08-28T13:15:14.031Z,6.65
2022-08-28T13:17:52.869Z,7.55
2022-08-28T13:20:30.551Z,6.05
2022-08-28T13:22:57.848Z,7.55
2022-08-28T13:25:31.118Z,7.40
2022-08-28T13:28:04.437Z,6.65
2022-08-28T13:30:34.285Z,5.45
2022-08-28T13:33:04.771Z,7.13
2022-08-28T13:35:35.832Z,5.53
2022-08-28T13:38:08.735Z,5.93
2022-08-28T13:40:57.336Z,7.22
2022-08-28T13:43:27.760Z,6.45
2022-08-28T13:45:54.961Z,6.40
2022-08-28T13:48:25.117Z,5.50
2022-08-28T13:50:58.892Z,5.22
2022-08-28T13:53:26.061Z,4.60
2022-08-28T13:55:53.180Z,4.50
2022-08-28T13:58:20.420Z,4.70
2022-08-28T14:00:49.379Z,4.72
2022-08-28T14:03:35.206Z,4.45
2022-08-28T14:06:14.068Z,3.80
2022-08-28T14:08:43.334Z,5.03
2022-08-28T14:11:12.851Z,4.13
2022-08-28T14:13:47.349Z,4.07
2022-08-28T14:16:25.730Z,4.22
2022-08-28T14:18:53.169Z,3.35
2022-08-28T14:21:21.357Z,3.90
2022-08-28T14:23:48.540Z,3.67
2022-08-28T14:26:15.663Z,3.88
2022-08-28T14:28:42.796Z,3.95
2022-08-28T14:31:13.831Z,4.05
2022-08-28T14:33:45.461Z,3.63
2022-08-28T14:36:21.877Z,3.60
2022-08-28T14:38:53.842Z,3.65
2022-08-28T14:41:23.698Z,3.70
2022-08-28T14:43:51.111Z,4.10
2022-08-28T14:46:25.231Z,3.38
2022-08-28T14:48:52.440Z,3.97
2022-08-28T14:51:19.551Z,3.88
2022-08-28T14:53:46.992Z,4.15
2022-08-28T14:56:14.382Z,3.78
2022-08-28T14:58:41.825Z,3.75
2022-08-28T15:01:09.214Z,3.10
2022-08-28T15:03:36.449Z,3.67
2022-08-28T15:06:07.307Z,3.40
2022-08-28T15:08:36.762Z,3.45
2022-08-28T15:11:14.303Z,3.88
2022-08-28T15:13:47.082Z,3.58
2022-08-28T15:16:30.399Z,3.58
2022-08-28T15:18:59.131Z,3.22
2022-08-28T15:21:35.645Z,3.17
2022-08-28T15:24:04.473Z,3.58
2022-08-28T15:26:32.741Z,3.25
2022-08-28T15:29:03.062Z,3.20
2022-08-28T15:31:35.339Z,3.50
2022-08-28T15:34:04.391Z,3.40
2022-08-28T15:36:34.881Z,3.15
2022-08-28T15:39:21.727Z,3.42
2022-08-28T15:41:49.085Z,2.92
2022-08-28T15:44:16.230Z,4.32
2022-08-28T15:46:50.525Z,3.17
2022-08-28T15:49:18.786Z,3.25
2022-08-28T15:51:45.949Z,3.35
2022-08-28T15:54:13.442Z,3.47
2022-08-28T15:56:41.615Z,3.45
2022-08-28T15:59:12.210Z,3.83
2022-08-28T16:01:39.693Z,3.22
2022-08-28T16:04:07.332Z,3.10
2022-08-28T16:06:35.500Z,2.90
2022-08-28T16:09:04.516Z,3.17
2022-08-28T16:11:33.859Z,3.58
2022-08-28T16:14:04.473Z,3.75
2022-08-28T16:16:31.722Z,3.40
2022-08-28T16:18:59.197Z,3.95
2022-08-28T16:21:27.517Z,3.63
2022-08-28T16:23:55.604Z,3.72
2022-08-28T16:26:23.248Z,3.30
2022-08-28T16:28:50.450Z,3.85
2022-08-28T16:31:20.594Z,3.60
2022-08-28T16:33:49.145Z,3.47
2022-08-28T16:36:17.226Z,2.92
2022-08-28T16:38:46.069Z,3.95
2022-08-28T16:41:21.860Z,3.85
2022-08-28T16:43:49.930Z,3.08
2022-08-28T16:46:20.684Z,3.20
2022-08-28T16:48:48.083Z,3.53
2022-08-28T16:51:16.158Z,4.15
2022-08-28T16:53:43.520Z,4.15
2022-08-28T16:56:12.257Z,4.10
2022-08-28T16:58:40.422Z,3.42
2022-08-28T17:01:08.226Z,3.78
2022-08-28T17:03:39.065Z,3.05
2022-08-28T17:06:11.530Z,3.63
2022-08-28T17:08:38.917Z,4.05
2022-08-28T17:11:06.711Z,3.58
2022-08-28T17:13:34.839Z,3.60
2022-08-28T17:16:02.749Z,4.30
2022-08-28T17:18:29.944Z,3.70
2022-08-28T17:21:15.956Z,3.70
2022-08-28T17:23:43.083Z,3.47
2022-08-28T17:26:10.231Z,3.30
2022-08-28T17:28:37.318Z,3.50
2022-08-28T17:31:04.739Z,3.33
2022-08-28T17:33:31.924Z,3.85
2022-08-28T17:35:59.784Z,3.25
2022-08-28T17:38:26.927Z,4.32
2022-08-28T17:40:54.034Z,3.97
2022-08-28T17:43:21.215Z,3.33
2022-08-28T17:45:48.622Z,3.38
2022-08-28T17:48:16.986Z,3.95
2022-08-28T17:50:46.188Z,2.83
2022-08-28T17:53:13.435Z,3.33
2022-08-28T17:55:40.531Z,3.20
2022-08-28T17:58:07.736Z,3.67
2022-08-28T18:00:35.150Z,3.53
2022-08-28T18:03:02.704Z,3.72
2022-08-28T18:05:29.981Z,3.75
2022-08-28T18:07:57.852Z,3.45
2022-08-28T18:10:26.147Z,3.60
2022-08-28T18:12:54.019Z,3.58
2022-08-28T18:15:22.142Z,4.15
2022-08-28T18:17:50.495Z,3.70
2022-08-28T18:20:18.909Z,3.58
2022-08-28T18:22:46.117Z,5.25
2022-08-28T18:25:33.623Z,4.90
2022-08-28T18:28:01.612Z,4.72
2022-08-28T18:30:29.469Z,3.60
2022-08-28T18:32:58.471Z,4.78
2022-08-28T18:35:32.109Z,4.90
2022-08-28T18:38:01.594Z,4.63
2022-08-28T18:40:29.102Z,3.65
2022-08-28T18:42:56.239Z,3.95
2022-08-28T18:45:23.432Z,4.80
2022-08-28T18:47:50.607Z,4.95
2022-08-28T18:50:21.732Z,4.47
2022-08-28T18:52:53.101Z,4.10
2022-08-28T18:55:21.395Z,3.70
2022-08-28T18:57:51.369Z,3.80
2022-08-28T19:00:20.826Z,3.78
2022-08-28T19:02:48.038Z,4.00
2022-08-28T19:05:15.722Z,3.67
2022-08-28T19:07:42.841Z,3.95
2022-08-28T19:10:28.047Z,3.22
2022-08-28T19:12:58.424Z,2.92
2022-08-28T19:15:25.634Z,2.53
2022-08-28T19:17:52.795Z,3.30
2022-08-28T19:20:20.567Z,3.20
2022-08-28T19:22:48.763Z,2.63
2022-08-28T19:25:27.531Z,2.40
2022-08-28T19:28:00.993Z,3.03
2022-08-28T19:30:33.183Z,3.00
2022-08-28T19:33:02.351Z,2.67
2022-08-28T19:35:29.607Z,2.72
2022-08-28T19:37:56.734Z,3.58
2022-08-28T19:40:24.034Z,3.10
2022-08-28T19:42:51.583Z,3.33
2022-08-28T19:45:20.218Z,3.10
2022-08-28T19:47:47.848Z,3.03
2022-08-28T19:50:15.509Z,3.40
2022-08-28T19:52:43.494Z,3.13
2022-08-28T19:55:20.025Z,3.10
2022-08-28T19:57:48.459Z,3.80
2022-08-28T20:00:17.777Z,2.90
2022-08-28T20:02:45.813Z,3.22
2022-08-28T20:05:13.167Z,2.75
2022-08-28T20:07:40.432Z,3.80
2022-08-28T20:10:07.941Z,3.05
2022-08-28T20:12:35.731Z,3.55
2022-08-28T20:15:03.821Z,3.25
2022-08-28T20:17:31.352Z,3.40
2022-08-28T20:20:02.363Z,3.72
2022-08-28T20:22:31.831Z,3.13
2022-08-28T20:24:59.517Z,2.90
2022-08-28T20:27:27.904Z,3.72
2022-08-28T20:29:55.088Z,3.28
2022-08-28T20:32:22.255Z,3.42
2022-08-28T20:34:49.465Z,3.65
2022-08-28T20:37:17.021Z,3.47
2022-08-28T20:39:44.218Z,3.20
2022-08-28T20:42:11.783Z,3.45
2022-08-28T20:44:38.996Z,3.30
2022-08-28T20:47:06.411Z,4.00
2022-08-28T20:49:39.247Z,4.18
2022-08-28T20:52:07.033Z,6.00
2022-08-28T20:54:41.604Z,4.78
2022-08-28T20:57:10.863Z,4.20
2022-08-28T20:59:40.609Z,4.00
2022-08-28T21:02:10.312Z,3.85
2022-08-28T21:04:38.822Z,3.45
2022-08-28T21:07:11.176Z,3.45
2022-08-28T21:10:04.123Z,4.53
2022-08-28T21:12:25.647Z,4.05
2022-08-28T21:14:53.162Z,3.28
2022-08-28T21:17:29.117Z,3.40
2022-08-28T21:20:04.148Z,3.70
2022-08-28T21:22:32.853Z,3.17
2022-08-28T21:25:00.877Z,3.17
2022-08-28T21:27:28.378Z,3.08
2022-08-28T21:29:58.255Z,4.18
2022-08-28T21:32:26.749Z,3.40
2022-08-28T21:34:55.037Z,3.28
2022-08-28T21:37:23.019Z,3.33
2022-08-28T21:39:50.733Z,4.00
2022-08-28T21:42:18.644Z,3.88
2022-08-28T21:44:51.983Z,3.13
2022-08-28T21:47:22.920Z,3.85
2022-08-28T21:49:54.865Z,4.05
2022-08-28T21:52:23.605Z,3.42
2022-08-28T21:54:55.840Z,3.70
2022-08-28T21:57:23.161Z,3.00
2022-08-28T21:59:50.311Z,3.72
2022-08-28T22:02:17.573Z,3.83
2022-08-28T22:04:44.842Z,3.50
2022-08-28T22:07:14.162Z,3.30
2022-08-28T22:09:41.708Z,3.80
2022-08-28T22:12:09.169Z,4.05
2022-08-28T22:14:36.659Z,3.50
2022-08-28T22:17:10.169Z,3.40
2022-08-28T22:19:38.827Z,3.17
2022-08-28T22:22:24.235Z,3.17
2022-08-28T22:24:51.427Z,3.42
2022-08-28T22:27:18.613Z,3.97
2022-08-28T22:29:45.994Z,3.38
2022-08-28T22:32:19.160Z,3.50
2022-08-28T22:34:46.397Z,4.35
2022-08-28T22:37:13.603Z,3.03
2022-08-28T22:39:41.766Z,3.35
2022-08-28T22:42:10.127Z,3.70
2022-08-28T22:44:37.511Z,3.10
2022-08-28T22:47:05.266Z,3.67
2022-08-28T22:49:32.450Z,3.72
2022-08-28T22:51:59.637Z,3.40
2022-08-28T22:54:26.803Z,3.45
2022-08-28T22:56:53.905Z,3.65
2022-08-28T22:59:22.117Z,3.45
2022-08-28T23:01:49.333Z,3.30
2022-08-28T23:04:16.964Z,3.30
2022-08-28T23:06:44.243Z,3.70
2022-08-28T23:09:11.504Z,3.25
2022-08-28T23:11:39.018Z,3.83
2022-08-28T23:14:06.138Z,4.55
2022-08-28T23:16:35.279Z,4.65
2022-08-28T23:19:13.070Z,4.38
2022-08-28T23:21:43.639Z,3.80
2022-08-28T23:24:16.062Z,3.47
2022-08-28T23:26:44.575Z,3.30
2022-08-28T23:29:12.092Z,3.80
2022-08-28T23:31:39.563Z,3.75
2022-08-28T23:34:06.844Z,3.80
2022-08-28T23:36:35.844Z,3.55
2022-08-28T23:39:04.627Z,3.42
2022-08-28T23:41:32.616Z,3.50
2022-08-28T23:43:59.865Z,3.63
2022-08-28T23:46:27.187Z,3.33
2022-08-28T23:48:54.319Z,3.03
2022-08-28T23:51:22.020Z,3.75
2022-08-28T23:53:50.423Z,3.15
2022-08-28T23:56:18.470Z,4.90
2022-08-28T23:58:45.576Z,3.88
